Time,TemperatureF,DewpointF,PressureIn,WindDirection,WindDirectionDegrees,WindSpeedMPH,WindSpeedGustMPH,Humidity,HourlyPrecipIn,Conditions,Clouds,dailyrainin,SoftwareType,DateUTC
2014-01-07 00:12:00,-13.4,-19.5,29.94,West,270,1.1,-999.0,73,-99.99,,,0.00,Acu-Link.com,2014-01-07 05:12:00,
2014-01-07 00:27:00,-13.5,-19.6,29.94,WSW,247,4.7,-999.0,73,-99.99,,,0.00,Acu-Link.com,2014-01-07 05:27:00,
2014-01-07 00:42:00,-13.7,-20.1,29.94,WSW,247,5.8,-999.0,72,-99.99,,,0.00,Acu-Link.com,2014-01-07 05:42:00,
2014-01-07 00:58:00,-13.7,-20.1,29.94,WSW,247,8.9,-999.0,72,-99.99,,,0.00,Acu-Link.com,2014-01-07 05:58:00,
2014-01-07 01:13:00,-13.5,-19.6,29.94,NW,315,7.3,-999.0,73,-99.99,,,0.00,Acu-Link.com,2014-01-07 06:13:00,
2014-01-07 01:28:00,-13.7,-19.8,29.94,South,180,4.2,-999.0,73,-99.99,,,0.00,Acu-Link.com,2014-01-07 06:28:00,
2014-01-07 01:43:00,-13.7,-19.8,29.95,South,180,3.2,-999.0,73,-99.99,,,0.00,Acu-Link.com,2014-01-07 06:43:00,
2014-01-07 01:59:00,-13.7,-19.8,29.95,West,270,3.7,-999.0,73,-99.99,,,0.00,Acu-Link.com,2014-01-07 06:59:00,
2014-01-07 02:14:00,-13.5,-19.6,29.96,West,270,4.2,-999.0,73,-99.99,,,0.00,Acu-Link.com,2014-01-07 07:14:00,
2014-01-07 02:29:00,-13.7,-19.8,29.97,WSW,247,4.7,-999.0,73,-99.99,,,0.00,Acu-Link.com,2014-01-07 07:29:00,
2014-01-07 02:44:00,-13.5,-19.6,29.98,WNW,292,3.2,-999.0,73,-99.99,,,0.00,Acu-Link.com,2014-01-07 07:44:00,
2014-01-07 02:59:00,-13.2,-19.3,29.99,WSW,247,7.8,-999.0,73,-99.99,,,0.00,Acu-Link.com,2014-01-07 07:59:00,
2014-01-07 03:15:00,-13.0,-18.6,29.99,West,270,5.3,-999.0,75,-99.99,,,0.00,Acu-Link.com,2014-01-07 08:15:00,
2014-01-07 03:30:00,-12.8,-18.7,29.99,SW,225,5.8,-999.0,74,-99.99,,,0.00,Acu-Link.com,2014-01-07 08:30:00,
2014-01-07 03:45:00,-12.8,-18.7,29.99,WSW,247,7.3,-999.0,74,-99.99,,,0.00,Acu-Link.com,2014-01-07 08:45:00,
2014-01-07 04:01:00,-12.8,-18.9,29.99,South,180,10.4,-999.0,73,-99.99,,,0.00,Acu-Link.com,2014-01-07 09:01:00,
2014-01-07 04:16:00,-12.8,-18.4,29.99,WSW,247,2.7,-999.0,75,-99.99,,,0.00,Acu-Link.com,2014-01-07 09:16:00,
2014-01-07 04:31:00,-12.8,-18.7,29.98,SSE,157,3.7,-999.0,74,-99.99,,,0.00,Acu-Link.com,2014-01-07 09:31:00,
2014-01-07 04:46:00,-13.0,-18.9,29.99,WSW,247,7.8,-999.0,74,-99.99,,,0.00,Acu-Link.com,2014-01-07 09:46:00,
2014-01-07 05:02:00,-12.5,-18.4,29.99,SW,225,2.7,-999.0,74,-99.99,,,0.00,Acu-Link.com,2014-01-07 10:02:00,
2014-01-07 05:17:00,-12.5,-18.1,29.98,SW,225,3.2,-999.0,75,-99.99,,,0.00,Acu-Link.com,2014-01-07 10:17:00,
2014-01-07 05:32:00,-11.6,-17.0,29.98,SW,225,9.4,-999.0,76,-99.99,,,0.00,Acu-Link.com,2014-01-07 10:32:00,
2014-01-07 05:48:00,-12.3,-17.9,29.99,West,270,7.3,-999.0,75,-99.99,,,0.00,Acu-Link.com,2014-01-07 10:48:00,
2014-01-07 06:03:00,-12.3,-17.9,29.99,WNW,292,3.2,-999.0,75,-99.99,,,0.00,Acu-Link.com,2014-01-07 11:03:00,
2014-01-07 06:18:00,-12.3,-17.9,29.99,SSW,202,6.3,-999.0,75,-99.99,,,0.00,Acu-Link.com,2014-01-07 11:18:00,
2014-01-07 06:33:00,-12.3,-18.2,29.99,SW,225,4.2,-999.0,74,-99.99,,,0.00,Acu-Link.com,2014-01-07 11:33:00,
2014-01-07 06:49:00,-12.3,-18.2,30.01,WSW,247,4.2,-999.0,74,-99.99,,,0.00,Acu-Link.com,2014-01-07 11:49:00,
2014-01-07 07:04:00,-12.1,-18.3,30.01,WSW,247,9.4,-999.0,73,-99.99,,,0.00,Acu-Link.com,2014-01-07 12:04:00,
2014-01-07 07:19:00,-12.1,-18.5,30.02,West,270,6.8,-999.0,72,-99.99,,,0.00,Acu-Link.com,2014-01-07 12:19:00,
2014-01-07 07:34:00,-11.9,-18.3,30.03,West,270,7.8,-999.0,72,-99.99,,,0.00,Acu-Link.com,2014-01-07 12:34:00,
2014-01-07 07:49:00,-11.7,-17.9,30.04,NW,315,8.9,-999.0,73,-99.99,,,0.00,Acu-Link.com,2014-01-07 12:49:00,
2014-01-07 08:04:00,-11.7,-17.9,30.04,West,270,4.7,-999.0,73,-99.99,,,0.00,Acu-Link.com,2014-01-07 13:04:00,
2014-01-07 08:19:00,-11.4,-17.6,30.04,West,270,9.4,-999.0,73,-99.99,,,0.00,Acu-Link.com,2014-01-07 13:19:00,
2014-01-07 08:34:00,-10.7,-16.9,30.04,WSW,247,10.4,-999.0,73,-99.99,,,0.00,Acu-Link.com,2014-01-07 13:34:00,
2014-01-07 08:49:00,-10.3,-16.5,30.05,West,270,5.8,-999.0,73,-99.99,,,0.00,Acu-Link.com,2014-01-07 13:49:00,
2014-01-07 09:04:00,-9.6,-15.9,30.05,West,270,7.8,-999.0,73,-99.99,,,0.00,Acu-Link.com,2014-01-07 14:04:00,
2014-01-07 09:19:00,-8.7,-15.5,30.06,WNW,292,5.3,-999.0,71,-99.99,,,0.00,Acu-Link.com,2014-01-07 14:19:00,
2014-01-07 09:35:00,-7.6,-14.7,30.06,SW,225,8.9,-999.0,70,-99.99,,,0.00,Acu-Link.com,2014-01-07 14:35:00,
2014-01-07 09:50:00,-6.5,-14.0,30.06,SW,225,2.2,-999.0,69,-99.99,,,0.00,Acu-Link.com,2014-01-07 14:50:00,
2014-01-07 15:16:00,2.5,-7.5,30.08,SSW,202,4.7,-999.0,62,-99.99,,,0.00,Acu-Link.com,2014-01-07 20:16:00,
2014-01-07 15:31:00,2.5,-7.2,30.08,WSW,247,7.3,-999.0,63,-99.99,,,0.00,Acu-Link.com,2014-01-07 20:31:00,
2014-01-07 15:47:00,2.1,-6.9,30.08,WNW,292,7.3,-999.0,65,-99.99,,,0.00,Acu-Link.com,2014-01-07 20:47:00,
2014-01-07 16:02:00,1.6,-7.4,30.08,ESE,112,2.2,-999.0,65,-99.99,,,0.00,Acu-Link.com,2014-01-07 21:02:00,
2014-01-07 16:17:00,1.2,-7.5,30.08,WSW,247,7.3,-999.0,66,-99.99,,,0.00,Acu-Link.com,2014-01-07 21:17:00,
2014-01-07 16:33:00,0.9,-7.5,30.08,West,270,4.7,-999.0,67,-99.99,,,0.00,Acu-Link.com,2014-01-07 21:33:00,
2014-01-07 16:48:00,0.7,-7.3,30.09,WSW,247,6.3,-999.0,68,-99.99,,,0.00,Acu-Link.com,2014-01-07 21:48:00,
2014-01-07 17:03:00,0.7,-7.3,30.09,SW,225,4.2,-999.0,68,-99.99,,,0.00,Acu-Link.com,2014-01-07 22:03:00,
2014-01-07 17:18:00,0.3,-7.4,30.09,SSW,202,10.9,-999.0,69,-99.99,,,0.00,Acu-Link.com,2014-01-07 22:18:00,
2014-01-07 17:33:00,0.1,-7.6,30.10,NNW,337,4.2,-999.0,69,-99.99,,,0.00,Acu-Link.com,2014-01-07 22:33:00,
2014-01-07 17:49:00,0.1,-7.3,30.11,SW,225,4.7,-999.0,70,-99.99,,,0.00,Acu-Link.com,2014-01-07 22:49:00,
2014-01-07 18:04:00,0.1,-7.3,30.11,WSW,247,4.2,-999.0,70,-99.99,,,0.00,Acu-Link.com,2014-01-07 23:04:00,
2014-01-07 18:19:00,0.0,-7.4,30.12,West,270,4.2,-999.0,70,-99.99,,,0.00,Acu-Link.com,2014-01-07 23:19:00,
2014-01-07 18:34:00,-0.2,-7.3,30.13,SW,225,3.2,-999.0,71,-99.99,,,0.00,Acu-Link.com,2014-01-07 23:34:00,
2014-01-07 18:49:00,-0.2,-7.0,30.14,SSW,202,4.2,-999.0,72,-99.99,,,0.00,Acu-Link.com,2014-01-07 23:49:00,
2014-01-07 19:04:00,-0.4,-7.0,30.14,WNW,292,2.2,-999.0,73,-99.99,,,0.00,Acu-Link.com,2014-01-08 00:04:00,
2014-01-07 19:20:00,-0.6,-6.9,30.14,West,270,2.7,-999.0,74,-99.99,,,0.00,Acu-Link.com,2014-01-08 00:20:00,
2014-01-07 19:35:00,-0.6,-6.6,30.15,West,270,6.3,-999.0,75,-99.99,,,0.00,Acu-Link.com,2014-01-08 00:35:00,
2014-01-07 19:50:00,-0.6,-6.6,30.15,West,270,4.2,-999.0,75,-99.99,,,0.00,Acu-Link.com,2014-01-08 00:50:00,
2014-01-07 20:05:00,-0.6,-6.6,30.15,SW,225,1.7,-999.0,75,-99.99,,,0.00,Acu-Link.com,2014-01-08 01:05:00,
2014-01-07 20:21:00,-0.6,-6.6,30.16,SSW,202,3.7,-999.0,75,-99.99,,,0.00,Acu-Link.com,2014-01-08 01:21:00,
2014-01-07 20:36:00,-0.4,-6.1,30.16,West,270,2.2,-999.0,76,-99.99,,,0.00,Acu-Link.com,2014-01-08 01:36:00,
2014-01-07 20:51:00,-0.4,-6.1,30.17,SSE,157,3.7,-999.0,76,-99.99,,,0.00,Acu-Link.com,2014-01-08 01:51:00,
2014-01-07 21:07:00,-0.2,-6.2,30.18,WNW,292,4.7,-999.0,75,-99.99,,,0.00,Acu-Link.com,2014-01-08 02:07:00,
2014-01-07 21:22:00,-0.2,-6.2,30.18,SW,225,4.7,-999.0,75,-99.99,,,0.00,Acu-Link.com,2014-01-08 02:22:00,
2014-01-07 21:37:00,0.0,-5.7,30.19,WSW,247,2.7,-999.0,76,-99.99,,,0.00,Acu-Link.com,2014-01-08 02:37:00,
2014-01-07 21:53:00,0.3,-5.4,30.18,SW,225,3.2,-999.0,76,-99.99,,,0.00,Acu-Link.com,2014-01-08 02:53:00,
2014-01-07 22:08:00,0.3,-5.4,30.19,SSW,202,2.2,-999.0,76,-99.99,,,0.00,Acu-Link.com,2014-01-08 03:08:00,
2014-01-07 22:23:00,0.3,-5.4,30.19,West,270,5.3,-999.0,76,-99.99,,,0.00,Acu-Link.com,2014-01-08 03:23:00,
2014-01-07 22:39:00,0.3,-5.4,30.20,West,270,0.0,-999.0,76,-99.99,,,0.00,Acu-Link.com,2014-01-08 03:39:00,
2014-01-07 22:54:00,0.5,-5.2,30.20,NNW,337,3.7,-999.0,76,-99.99,,,0.00,Acu-Link.com,2014-01-08 03:54:00,
2014-01-07 23:09:00,0.3,-5.2,30.20,West,270,1.7,-999.0,77,-99.99,,,0.00,Acu-Link.com,2014-01-08 04:09:00,
2014-01-07 23:24:00,0.1,-5.4,30.20,WSW,247,2.2,-999.0,77,-99.99,,,0.00,Acu-Link.com,2014-01-08 04:24:00,
2014-01-07 23:39:00,0.3,-4.9,30.20,West,270,3.2,-999.0,78,-99.99,,,0.00,Acu-Link.com,2014-01-08 04:39:00,
2014-01-07 23:55:00,0.7,-4.5,30.21,NNE,22,0.0,-999.0,78,-99.99,,,0.00,Acu-Link.com,2014-01-08 04:55:00,